createdAt,value
2023-03-29T01:32:16.038Z,3.32
2023-03-29T01:34:02.301Z,3.29
2023-03-29T01:35:43.848Z,3.31
2023-03-29T01:37:24.848Z,3.28
2023-03-29T01:39:00.694Z,3.18
2023-03-29T01:40:34.381Z,3.19
2023-03-29T01:42:31.225Z,3.16
2023-03-29T01:44:11.235Z,3.20
2023-03-29T01:45:48.734Z,3.20
2023-03-29T01:47:31.494Z,3.17
2023-03-29T01:49:11.328Z,3.15
2023-03-29T01:50:50.385Z,3.17
2023-03-29T01:52:27.239Z,3.13
2023-03-29T01:54:05.913Z,3.11
2023-03-29T01:55:44.301Z,3.11
2023-03-29T01:57:20.097Z,3.07
2023-03-29T01:58:57.455Z,3.04
2023-03-29T02:00:31.564Z,3.02
2023-03-29T02:02:11.434Z,3.00
2023-03-29T02:03:51.021Z,2.94
2023-03-29T02:05:26.605Z,2.95
2023-03-29T02:07:08.953Z,3.00
2023-03-29T02:08:43.225Z,2.99
2023-03-29T02:10:18.683Z,2.96
2023-03-29T02:11:53.150Z,2.92
2023-03-29T02:13:27.416Z,2.91
2023-03-29T02:15:01.010Z,2.87
2023-03-29T02:16:40.511Z,2.92
2023-03-29T02:18:15.782Z,2.92
2023-03-29T02:19:56.187Z,2.86
2023-03-29T02:21:33.872Z,2.91
2023-03-29T02:23:16.045Z,2.95
2023-03-29T02:24:52.759Z,2.98
2023-03-29T02:26:29.249Z,3.01
2023-03-29T02:28:05.796Z,3.04
2023-03-29T02:29:39.424Z,3.00
2023-03-29T02:31:20.312Z,3.01
2023-03-29T02:32:59.694Z,3.00
2023-03-29T02:34:37.688Z,3.06
2023-03-29T02:36:19.692Z,3.05
2023-03-29T02:37:56.145Z,3.06
2023-03-29T02:39:32.336Z,3.07
2023-03-29T02:41:07.080Z,3.07
2023-03-29T02:42:40.821Z,3.16
2023-03-29T02:44:18.474Z,3.21
2023-03-29T02:45:53.580Z,3.26
2023-03-29T02:47:34.782Z,3.27
2023-03-29T02:49:08.473Z,3.29
2023-03-29T02:50:44.317Z,3.27
2023-03-29T02:52:24.073Z,3.23
2023-03-29T02:54:03.273Z,3.24
2023-03-29T02:55:37.038Z,3.27
2023-03-29T02:57:10.482Z,3.32
2023-03-29T02:58:46.510Z,3.32
2023-03-29T03:00:24.189Z,3.33
2023-03-29T03:02:00.171Z,3.29
2023-03-29T03:03:35.967Z,3.26
2023-03-29T03:05:10.061Z,3.24
2023-03-29T03:06:43.312Z,3.19
2023-03-29T03:08:18.787Z,3.17
2023-03-29T03:09:55.884Z,3.20
2023-03-29T03:11:29.352Z,3.14
2023-03-29T03:13:03.243Z,3.11
2023-03-29T03:14:38.137Z,3.19
2023-03-29T03:16:11.612Z,3.17
2023-03-29T03:17:46.788Z,3.16
2023-03-29T03:19:20.531Z,3.10
2023-03-29T03:20:59.249Z,2.99
2023-03-29T03:22:35.232Z,3.01
2023-03-29T03:24:10.492Z,3.00
2023-03-29T03:25:46.317Z,2.98
2023-03-29T03:27:21.419Z,3.00
2023-03-29T03:28:55.140Z,2.98
2023-03-29T03:30:46.770Z,2.95
2023-03-29T03:32:38.717Z,2.89
2023-03-29T03:34:30.544Z,2.81
2023-03-29T03:36:07.175Z,2.88
2023-03-29T03:37:42.997Z,2.84
2023-03-29T03:39:18.568Z,2.81
2023-03-29T03:40:55.346Z,2.74
2023-03-29T03:42:29.592Z,2.73
2023-03-29T03:44:02.540Z,2.75
2023-03-29T03:45:36.324Z,2.77
2023-03-29T03:47:22.333Z,2.82
2023-03-29T03:48:55.726Z,2.80
2023-03-29T03:50:35.328Z,2.71
2023-03-29T03:52:08.916Z,2.70
2023-03-29T03:53:42.442Z,2.71
2023-03-29T03:55:37.004Z,2.70
2023-03-29T03:57:17.785Z,2.70
2023-03-29T03:58:56.771Z,2.72
2023-03-29T04:00:30.004Z,2.70
2023-03-29T04:02:28.316Z,2.71
2023-03-29T04:04:02.218Z,2.62
2023-03-29T04:05:40.422Z,2.63
2023-03-29T04:07:14.462Z,2.69
2023-03-29T04:08:48.404Z,2.68
2023-03-29T04:10:31.828Z,2.71
2023-03-29T04:12:20.125Z,2.71
2023-03-29T04:13:53.710Z,2.68
2023-03-29T04:15:40.077Z,2.70
2023-03-29T04:17:18.470Z,2.69
2023-03-29T04:19:27.304Z,2.71
2023-03-29T04:21:01.086Z,2.69
2023-03-29T04:22:35.395Z,2.72
2023-03-29T04:24:09.735Z,2.71
2023-03-29T04:25:45.757Z,2.76
2023-03-29T04:27:58.989Z,2.72
2023-03-29T04:29:45.046Z,2.76
2023-03-29T04:31:27.958Z,2.78
2023-03-29T04:33:21.572Z,2.83
2023-03-29T04:35:01.740Z,2.82
2023-03-29T04:36:35.625Z,2.85
2023-03-29T04:38:11.515Z,2.83
2023-03-29T04:39:46.062Z,2.79
2023-03-29T04:41:20.072Z,2.86
2023-03-29T04:43:12.405Z,2.91
2023-03-29T04:44:54.843Z,2.87
2023-03-29T04:46:43.053Z,2.94
2023-03-29T04:48:37.754Z,3.02
2023-03-29T04:50:11.704Z,3.03
2023-03-29T04:51:48.974Z,3.07
2023-03-29T04:53:26.292Z,3.00
2023-03-29T04:54:59.913Z,3.14
2023-03-29T04:56:53.410Z,3.19
2023-03-29T04:58:48.492Z,3.31
2023-03-29T05:00:27.185Z,3.46
2023-03-29T05:02:20.886Z,3.67
2023-03-29T05:03:56.914Z,3.92
2023-03-29T05:05:35.647Z,4.20
2023-03-29T05:07:08.498Z,4.42
2023-03-29T05:10:49.243Z,4.78
2023-03-29T05:12:29.573Z,4.90
2023-03-29T05:14:07.434Z,4.83
2023-03-29T05:15:41.932Z,4.87
2023-03-29T05:17:15.918Z,4.96
2023-03-29T05:18:51.795Z,5.05
2023-03-29T05:20:26.069Z,5.12
2023-03-29T05:22:00.209Z,5.13
2023-03-29T05:23:34.386Z,5.26
2023-03-29T05:25:13.827Z,5.61
2023-03-29T05:26:51.761Z,5.58
2023-03-29T05:28:26.257Z,5.70
2023-03-29T05:30:01.511Z,5.77
2023-03-29T05:32:01.417Z,5.75
2023-03-29T05:33:36.698Z,5.56
2023-03-29T05:35:12.049Z,5.67
2023-03-29T05:36:46.547Z,5.78
2023-03-29T05:38:20.401Z,5.96
2023-03-29T05:39:54.931Z,6.12
2023-03-29T05:41:42.749Z,6.03
2023-03-29T05:43:37.553Z,6.26
2023-03-29T05:45:13.082Z,6.46
2023-03-29T05:46:47.293Z,6.72
2023-03-29T05:48:24.511Z,6.69
2023-03-29T05:49:58.115Z,6.78
2023-03-29T05:51:33.349Z,7.03
2023-03-29T05:53:06.678Z,7.25
2023-03-29T05:54:40.020Z,7.00
2023-03-29T05:56:16.402Z,6.80
2023-03-29T05:57:50.262Z,7.00
2023-03-29T05:59:28.797Z,7.07
2023-03-29T06:01:05.735Z,6.82
2023-03-29T06:03:17.710Z,6.97
2023-03-29T06:04:55.564Z,7.03
2023-03-29T06:06:28.978Z,6.75
2023-03-29T06:08:02.554Z,6.76
2023-03-29T06:09:59.076Z,6.87
2023-03-29T06:11:33.257Z,6.65
2023-03-29T06:13:23.532Z,6.82
2023-03-29T06:14:58.532Z,6.70
2023-03-29T06:16:43.652Z,6.44
2023-03-29T06:18:17.890Z,6.40
2023-03-29T06:19:53.312Z,6.15
2023-03-29T06:21:30.463Z,6.44
2023-03-29T06:23:04.972Z,6.66
2023-03-29T06:24:38.125Z,6.51
2023-03-29T06:26:17.996Z,6.57
2023-03-29T06:27:52.305Z,6.56
2023-03-29T06:29:26.828Z,6.99
2023-03-29T06:31:03.081Z,7.01
2023-03-29T06:32:43.290Z,7.03
2023-03-29T06:34:43.296Z,6.87
2023-03-29T06:36:45.949Z,6.98
2023-03-29T06:38:20.973Z,7.31
2023-03-29T06:40:14.474Z,7.26
2023-03-29T06:41:49.953Z,6.88
2023-03-29T06:43:46.112Z,7.43
2023-03-29T06:45:24.646Z,7.59
2023-03-29T06:47:00.151Z,7.48
2023-03-29T06:48:35.173Z,7.56
2023-03-29T06:50:09.476Z,7.03
2023-03-29T06:51:50.713Z,7.15
2023-03-29T06:53:24.506Z,7.36
2023-03-29T06:55:03.089Z,7.59
2023-03-29T06:56:36.354Z,7.72
2023-03-29T06:58:14.093Z,7.34
2023-03-29T06:59:47.800Z,7.24
2023-03-29T07:01:25.274Z,7.32
2023-03-29T07:03:10.664Z,7.35
2023-03-29T07:04:46.663Z,7.50
2023-03-29T07:06:33.786Z,7.54
2023-03-29T07:08:14.143Z,7.22
2023-03-29T07:09:58.255Z,7.22
2023-03-29T07:12:10.837Z,7.13
2023-03-29T07:13:44.976Z,7.13
2023-03-29T07:15:25.819Z,7.31
2023-03-29T07:17:34.390Z,7.47
2023-03-29T07:19:09.220Z,7.42
2023-03-29T07:20:59.248Z,7.53
2023-03-29T07:22:32.739Z,7.80
2023-03-29T07:24:10.284Z,7.71
2023-03-29T07:25:44.771Z,7.69
2023-03-29T07:27:18.845Z,7.77
2023-03-29T07:28:55.205Z,8.12
2023-03-29T07:30:31.866Z,8.07
2023-03-29T07:32:19.006Z,8.45
2023-03-29T07:33:53.726Z,8.48
2023-03-29T07:35:27.969Z,8.41
2023-03-29T07:37:03.209Z,8.36
2023-03-29T07:38:38.078Z,7.90
2023-03-29T07:40:23.819Z,7.78
2023-03-29T07:42:03.593Z,7.84
2023-03-29T07:43:37.065Z,8.24
2023-03-29T07:45:11.411Z,8.58
2023-03-29T07:47:00.543Z,8.56
2023-03-29T07:48:34.240Z,8.65
2023-03-29T07:50:12.350Z,8.48
2023-03-29T07:51:45.769Z,8.30
2023-03-29T07:53:23.252Z,7.97
2023-03-29T07:54:58.997Z,7.97
2023-03-29T07:56:51.099Z,7.47
2023-03-29T07:58:45.096Z,7.54
2023-03-29T08:00:20.418Z,7.51
2023-03-29T08:02:11.913Z,7.26
2023-03-29T08:03:48.314Z,6.88
2023-03-29T08:05:37.514Z,6.78
2023-03-29T08:07:19.356Z,6.91
2023-03-29T08:09:14.402Z,7.25
2023-03-29T08:10:50.199Z,7.40
2023-03-29T08:12:53.669Z,7.45
2023-03-29T08:14:34.376Z,7.33
2023-03-29T08:16:22.192Z,7.24
2023-03-29T08:18:02.556Z,7.11
2023-03-29T08:19:35.880Z,6.97
2023-03-29T08:21:11.782Z,6.93
2023-03-29T08:22:45.464Z,6.99
2023-03-29T08:24:39.075Z,6.87
2023-03-29T08:26:15.958Z,6.94
2023-03-29T08:27:50.060Z,6.99
2023-03-29T08:29:33.332Z,6.99
2023-03-29T08:31:08.667Z,6.81
2023-03-29T08:32:43.697Z,6.82
2023-03-29T08:34:17.238Z,6.77
2023-03-29T08:35:51.214Z,6.55
2023-03-29T08:37:32.821Z,6.52
2023-03-29T08:39:06.985Z,6.61
2023-03-29T08:40:41.980Z,6.89
2023-03-29T08:42:29.807Z,7.29
2023-03-29T08:44:15.526Z,7.57
2023-03-29T08:46:11.904Z,7.92
2023-03-29T08:47:56.973Z,7.78
2023-03-29T08:49:32.296Z,7.51
2023-03-29T08:51:16.298Z,7.45
2023-03-29T08:52:56.108Z,7.24
2023-03-29T08:55:05.874Z,7.33
2023-03-29T08:57:06.683Z,7.79
2023-03-29T08:58:46.851Z,7.67
2023-03-29T09:00:25.797Z,7.39
2023-03-29T09:02:01.445Z,7.76
2023-03-29T09:03:40.026Z,8.22
2023-03-29T09:05:27.039Z,8.28
2023-03-29T09:07:10.234Z,7.95
2023-03-29T09:08:49.826Z,7.65
2023-03-29T09:10:36.795Z,7.62
2023-03-29T09:12:22.688Z,7.32
2023-03-29T09:14:10.265Z,7.15
2023-03-29T09:15:52.602Z,7.02
2023-03-29T09:17:52.208Z,6.97
2023-03-29T09:19:35.896Z,7.09
2023-03-29T09:21:18.317Z,7.12
2023-03-29T09:23:01.893Z,7.12
2023-03-29T09:24:54.709Z,6.88
2023-03-29T09:26:39.173Z,6.86
2023-03-29T09:28:39.040Z,6.63
2023-03-29T09:30:25.959Z,6.63
2023-03-29T09:32:21.046Z,6.87
2023-03-29T09:33:59.877Z,7.11
2023-03-29T09:35:54.934Z,6.97
2023-03-29T09:37:33.894Z,7.01
2023-03-29T09:39:08.578Z,6.97
2023-03-29T09:40:48.723Z,7.08
2023-03-29T09:42:29.577Z,7.30
2023-03-29T09:44:12.755Z,7.11
2023-03-29T09:45:59.261Z,6.98
2023-03-29T09:47:37.449Z,7.13
2023-03-29T09:49:21.832Z,7.44
2023-03-29T09:50:55.965Z,7.20
2023-03-29T09:52:29.733Z,7.26
2023-03-29T09:54:13.019Z,7.03
2023-03-29T09:56:07.150Z,7.11
2023-03-29T09:57:47.857Z,7.12
2023-03-29T09:59:23.044Z,7.51
2023-03-29T10:00:59.983Z,7.68
2023-03-29T10:02:34.291Z,7.63
2023-03-29T10:04:09.254Z,7.54
2023-03-29T10:05:47.622Z,7.70
2023-03-29T10:07:24.274Z,7.77
2023-03-29T10:09:06.335Z,8.04
2023-03-29T10:10:45.659Z,8.19
2023-03-29T10:12:19.061Z,7.94
2023-03-29T10:13:57.470Z,8.00
2023-03-29T10:15:33.266Z,7.65
2023-03-29T10:17:13.056Z,7.54
2023-03-29T10:18:47.537Z,7.44
2023-03-29T10:20:21.195Z,7.37
2023-03-29T10:21:56.257Z,7.51
2023-03-29T10:23:33.711Z,7.40
2023-03-29T10:25:14.767Z,7.25
2023-03-29T10:26:49.435Z,7.29
2023-03-29T10:28:24.901Z,7.39
2023-03-29T10:30:00.911Z,7.47
2023-03-29T10:31:38.253Z,7.42
2023-03-29T10:33:18.906Z,7.29
2023-03-29T10:34:54.363Z,7.46
2023-03-29T10:36:28.599Z,7.58
2023-03-29T10:38:06.608Z,7.50
2023-03-29T10:39:41.614Z,7.59
2023-03-29T10:41:23.653Z,7.52
2023-03-29T10:43:00.712Z,7.39
2023-03-29T10:44:37.011Z,7.36
2023-03-29T10:46:13.379Z,7.50
2023-03-29T10:47:49.937Z,7.73
2023-03-29T10:49:25.628Z,7.92
2023-03-29T10:51:00.132Z,7.98
2023-03-29T10:52:34.641Z,7.91
2023-03-29T10:54:13.009Z,8.00
2023-03-29T10:55:53.271Z,8.08
2023-03-29T10:57:34.913Z,7.99
2023-03-29T10:59:27.827Z,8.02
2023-03-29T11:01:02.037Z,8.00
2023-03-29T11:03:00.485Z,8.07
2023-03-29T11:04:42.640Z,7.94
2023-03-29T11:06:25.618Z,8.00
2023-03-29T11:08:12.622Z,8.11
2023-03-29T11:09:54.626Z,8.27
2023-03-29T11:11:44.218Z,8.26
2023-03-29T11:13:27.297Z,8.28
2023-03-29T11:15:15.071Z,8.55
2023-03-29T11:16:58.765Z,8.79
2023-03-29T11:18:49.714Z,8.54
2023-03-29T11:20:30.242Z,8.43
2023-03-29T11:22:08.794Z,8.68
2023-03-29T11:23:49.882Z,8.79
2023-03-29T11:25:45.302Z,8.81
2023-03-29T11:27:29.942Z,8.91
2023-03-29T11:29:10.412Z,8.79
2023-03-29T11:30:49.770Z,8.82
2023-03-29T11:32:30.668Z,8.84
2023-03-29T11:34:20.548Z,8.95
2023-03-29T11:35:58.261Z,9.14
2023-03-29T11:37:36.877Z,9.19
2023-03-29T11:39:23.789Z,9.24
2023-03-29T11:41:03.487Z,9.30
2023-03-29T11:42:44.203Z,9.31
2023-03-29T11:44:21.560Z,9.36
2023-03-29T11:45:58.122Z,9.53
2023-03-29T11:47:38.312Z,9.38
2023-03-29T11:49:19.572Z,8.97
2023-03-29T11:50:57.845Z,9.04
2023-03-29T11:52:37.869Z,8.84
2023-03-29T11:54:18.858Z,8.81
2023-03-29T11:55:53.895Z,8.99
2023-03-29T11:57:32.201Z,9.01
2023-03-29T11:59:13.960Z,9.04
2023-03-29T12:00:50.050Z,8.92
2023-03-29T12:02:29.713Z,9.10
2023-03-29T12:04:08.661Z,9.18
2023-03-29T12:05:46.931Z,9.16
2023-03-29T12:07:26.951Z,9.12
2023-03-29T12:09:05.446Z,9.01
2023-03-29T12:10:43.170Z,8.85
2023-03-29T12:12:23.394Z,8.86
2023-03-29T12:14:02.470Z,8.81
2023-03-29T12:15:42.441Z,9.08
2023-03-29T12:17:20.656Z,9.28
2023-03-29T12:18:56.900Z,9.36
2023-03-29T12:20:34.053Z,9.37
2023-03-29T12:22:11.324Z,9.33
2023-03-29T12:23:50.420Z,9.28
2023-03-29T12:25:29.495Z,9.20
2023-03-29T12:27:20.837Z,9.19
2023-03-29T12:29:16.433Z,9.13
2023-03-29T12:30:59.414Z,9.23
2023-03-29T12:32:46.785Z,9.23
2023-03-29T12:35:04.182Z,9.07
2023-03-29T12:37:27.565Z,8.98
2023-03-29T12:39:23.328Z,9.19
2023-03-29T12:41:19.246Z,9.30
2023-03-29T12:43:20.519Z,9.41
2023-03-29T12:45:19.531Z,9.24
2023-03-29T12:46:54.970Z,9.21
2023-03-29T12:48:31.982Z,9.30
2023-03-29T12:50:05.477Z,9.33
2023-03-29T12:51:43.575Z,9.47
2023-03-29T12:53:23.402Z,9.55
2023-03-29T12:54:58.346Z,9.63
2023-03-29T12:56:41.468Z,9.66
2023-03-29T12:58:27.930Z,9.65
2023-03-29T13:00:12.425Z,9.54
2023-03-29T13:01:59.514Z,9.48
2023-03-29T13:03:44.289Z,9.53
2023-03-29T13:05:38.596Z,9.64
2023-03-29T13:07:16.700Z,9.88
2023-03-29T13:09:00.479Z,9.99
2023-03-29T13:10:40.809Z,9.99
2023-03-29T13:12:23.992Z,10.08
2023-03-29T13:13:57.963Z,10.01
2023-03-29T13:15:35.382Z,10.01
2023-03-29T13:17:18.515Z,10.12
2023-03-29T13:19:07.212Z,10.14
2023-03-29T13:20:48.123Z,10.08
2023-03-29T13:22:34.554Z,9.97
2023-03-29T13:24:25.018Z,9.94
2023-03-29T13:26:27.404Z,9.95
2023-03-29T13:28:09.434Z,9.89
2023-03-29T13:29:56.333Z,9.82
2023-03-29T13:31:37.335Z,9.75
2023-03-29T13:33:21.525Z,9.80
2023-03-29T13:35:01.109Z,9.82
2023-03-29T13:36:50.724Z,9.78
2023-03-29T13:38:31.421Z,9.94
2023-03-29T13:40:29.553Z,10.16
2023-03-29T13:42:20.707Z,9.76
2023-03-29T13:43:55.518Z,9.86
2023-03-29T13:45:30.199Z,10.01
2023-03-29T13:47:06.692Z,10.13
2023-03-29T13:48:54.892Z,10.18
2023-03-29T13:50:36.717Z,10.02
2023-03-29T13:52:16.684Z,9.77
2023-03-29T13:53:54.295Z,10.01
2023-03-29T13:55:33.314Z,9.97
2023-03-29T13:57:14.758Z,9.96
2023-03-29T13:58:52.763Z,10.17
2023-03-29T14:00:30.635Z,10.10
2023-03-29T14:02:06.765Z,10.10
2023-03-29T14:03:45.959Z,10.18
2023-03-29T14:05:27.789Z,10.24
2023-03-29T14:07:02.461Z,10.29
2023-03-29T14:08:41.643Z,10.28
2023-03-29T14:10:18.034Z,10.31
2023-03-29T14:11:52.890Z,10.33
2023-03-29T14:13:27.231Z,10.26
2023-03-29T14:15:03.847Z,10.19
2023-03-29T14:16:40.116Z,10.18
2023-03-29T14:18:16.487Z,10.13
2023-03-29T14:19:50.770Z,9.77
2023-03-29T14:21:24.179Z,9.68
2023-03-29T14:22:57.565Z,9.69
2023-03-29T14:24:39.495Z,9.69
2023-03-29T14:26:18.687Z,9.55
2023-03-29T14:27:53.244Z,9.76
2023-03-29T14:29:32.106Z,9.81
2023-03-29T14:31:07.926Z,10.01
2023-03-29T14:32:41.429Z,10.11
2023-03-29T14:34:17.454Z,10.18
2023-03-29T14:35:51.988Z,10.18
2023-03-29T14:37:28.191Z,10.09
2023-03-29T14:39:05.971Z,9.96
2023-03-29T14:40:39.462Z,9.95
2023-03-29T14:42:20.871Z,9.94
2023-03-29T14:43:55.874Z,10.00
2023-03-29T14:45:29.171Z,9.97
2023-03-29T14:47:03.834Z,10.00
2023-03-29T14:48:38.830Z,10.11
2023-03-29T14:50:19.888Z,10.12
2023-03-29T14:51:54.862Z,10.26
2023-03-29T14:53:30.814Z,10.36
2023-03-29T14:55:05.241Z,10.46
2023-03-29T14:56:38.678Z,10.45
2023-03-29T14:58:18.671Z,10.35
2023-03-29T14:59:56.489Z,10.53
2023-03-29T15:01:29.873Z,10.58
2023-03-29T15:03:03.898Z,10.69
2023-03-29T15:04:37.624Z,10.74
2023-03-29T15:06:12.962Z,10.79
2023-03-29T15:07:46.823Z,10.72
2023-03-29T15:09:25.555Z,10.75
2023-03-29T15:10:59.515Z,10.71
2023-03-29T15:12:33.810Z,10.90
2023-03-29T15:14:09.817Z,11.07
2023-03-29T15:15:44.974Z,11.28
2023-03-29T15:17:43.055Z,11.41
2023-03-29T15:19:29.335Z,11.40
2023-03-29T15:21:03.385Z,11.27
2023-03-29T15:22:39.248Z,11.18
2023-03-29T15:24:22.291Z,10.84
2023-03-29T15:25:58.782Z,10.70
2023-03-29T15:27:42.611Z,10.75
2023-03-29T15:29:23.535Z,11.02
2023-03-29T15:32:39.941Z,11.38
2023-03-29T15:34:16.107Z,11.52
2023-03-29T15:35:52.090Z,11.70
2023-03-29T15:37:26.026Z,11.65
2023-03-29T15:38:59.752Z,11.39
2023-03-29T15:40:33.294Z,11.19
2023-03-29T15:42:07.759Z,10.98
2023-03-29T15:43:41.656Z,10.90
2023-03-29T15:45:17.222Z,11.03
2023-03-29T15:46:52.146Z,11.29
2023-03-29T15:48:27.860Z,11.35
2023-03-29T15:50:01.749Z,11.33
2023-03-29T15:51:35.025Z,11.21
2023-03-29T15:53:15.214Z,11.13
2023-03-29T15:54:49.309Z,11.03
2023-03-29T15:56:23.591Z,10.76
2023-03-29T15:57:59.565Z,10.56
2023-03-29T15:59:33.753Z,10.20
2023-03-29T16:01:19.174Z,9.80
2023-03-29T16:02:57.604Z,9.64
2023-03-29T16:04:30.882Z,9.59
2023-03-29T16:06:04.648Z,9.50
2023-03-29T16:07:37.995Z,9.49
2023-03-29T16:09:13.078Z,9.47
2023-03-29T16:10:47.236Z,9.33
2023-03-29T16:12:20.559Z,9.29
2023-03-29T16:13:53.854Z,9.25
2023-03-29T16:15:29.195Z,9.13
2023-03-29T16:17:03.269Z,9.17
2023-03-29T16:18:38.793Z,9.12
2023-03-29T16:20:15.001Z,9.07
2023-03-29T16:21:49.716Z,9.08
2023-03-29T16:23:23.126Z,9.09
2023-03-29T16:24:56.591Z,9.04
2023-03-29T16:26:30.426Z,8.99
2023-03-29T16:28:05.066Z,8.97
2023-03-29T16:29:38.189Z,8.91
2023-03-29T16:31:12.717Z,8.85
2023-03-29T16:32:46.231Z,8.84
2023-03-29T16:34:23.076Z,8.82
2023-03-29T16:36:01.318Z,8.72
2023-03-29T16:37:35.113Z,8.66
2023-03-29T16:39:08.523Z,8.60
2023-03-29T16:40:43.149Z,8.55
2023-03-29T16:42:16.571Z,8.61
2023-03-29T16:43:50.075Z,8.60
2023-03-29T16:45:23.761Z,8.59
2023-03-29T16:46:58.496Z,8.51
2023-03-29T16:48:32.062Z,8.43
2023-03-29T16:50:08.321Z,8.39
2023-03-29T16:51:41.596Z,8.38
2023-03-29T16:53:15.395Z,8.33
2023-03-29T16:54:48.774Z,8.30
2023-03-29T16:56:22.840Z,8.23
2023-03-29T16:57:59.235Z,8.16
2023-03-29T16:59:34.207Z,8.13
2023-03-29T17:01:11.866Z,8.07
2023-03-29T17:02:45.597Z,8.01
2023-03-29T17:04:18.836Z,7.99
2023-03-29T17:05:55.178Z,7.95
2023-03-29T17:07:29.587Z,7.96
2023-03-29T17:09:03.362Z,7.96
2023-03-29T17:10:37.057Z,7.89
2023-03-29T17:12:10.558Z,7.86
2023-03-29T17:13:43.866Z,7.89
2023-03-29T17:15:17.612Z,7.88
2023-03-29T17:16:51.054Z,7.88
2023-03-29T17:18:26.598Z,7.88
2023-03-29T17:19:59.944Z,7.85
2023-03-29T17:21:34.520Z,7.79
2023-03-29T17:23:08.996Z,7.79
2023-03-29T17:24:43.145Z,7.76
2023-03-29T17:26:16.466Z,7.69
2023-03-29T17:27:50.769Z,7.65
2023-03-29T17:29:24.228Z,7.61
2023-03-29T17:30:58.376Z,7.53
2023-03-29T17:32:31.808Z,7.51
2023-03-29T17:34:05.086Z,7.46
2023-03-29T17:35:38.228Z,7.39
2023-03-29T17:37:13.335Z,7.41
2023-03-29T17:38:48.930Z,7.32
2023-03-29T17:40:22.594Z,7.37
2023-03-29T17:41:55.875Z,7.32
2023-03-29T17:43:30.197Z,7.31
2023-03-29T17:45:03.938Z,7.30
2023-03-29T17:46:37.924Z,7.26
2023-03-29T17:48:11.483Z,7.23
2023-03-29T17:49:45.422Z,7.21
2023-03-29T17:51:19.671Z,7.18
2023-03-29T17:52:54.413Z,7.09
2023-03-29T17:54:27.603Z,7.07
2023-03-29T17:56:01.364Z,7.02
2023-03-29T17:57:34.832Z,6.94
2023-03-29T17:59:08.302Z,6.94
2023-03-29T18:00:41.513Z,6.90
2023-03-29T18:02:18.060Z,6.85
2023-03-29T18:03:51.285Z,6.81
2023-03-29T18:05:24.728Z,6.76
2023-03-29T18:06:57.979Z,6.73
2023-03-29T18:08:33.398Z,6.69
2023-03-29T18:10:07.846Z,6.67
2023-03-29T18:11:41.423Z,6.65
2023-03-29T18:13:17.594Z,6.56
2023-03-29T18:14:51.248Z,6.55
2023-03-29T18:16:24.690Z,6.51
2023-03-29T18:17:57.956Z,6.46
2023-03-29T18:19:31.407Z,6.44
2023-03-29T18:21:07.142Z,6.41
2023-03-29T18:22:41.393Z,6.35
2023-03-29T18:24:16.717Z,6.34
2023-03-29T18:25:49.925Z,6.33
2023-03-29T18:27:23.596Z,6.29
2023-03-29T18:28:57.002Z,6.28
2023-03-29T18:30:30.318Z,6.24
2023-03-29T18:32:03.645Z,6.19
2023-03-29T18:33:37.954Z,6.17
2023-03-29T18:35:11.759Z,6.12
2023-03-29T18:36:45.045Z,6.10
2023-03-29T18:38:18.736Z,6.03
2023-03-29T18:39:53.931Z,5.97
2023-03-29T18:41:27.164Z,5.93
2023-03-29T18:43:00.599Z,5.90
2023-03-29T18:44:33.823Z,5.85
2023-03-29T18:46:07.925Z,5.83
2023-03-29T18:47:41.235Z,5.78
2023-03-29T18:49:14.414Z,5.74
2023-03-29T18:50:48.096Z,5.70
2023-03-29T18:52:21.628Z,5.63
2023-03-29T18:53:55.647Z,5.51
2023-03-29T18:55:31.224Z,5.51
2023-03-29T18:57:04.615Z,5.47
2023-03-29T18:58:38.129Z,5.38
2023-03-29T19:00:13.025Z,5.25
2023-03-29T19:01:46.502Z,5.15
2023-03-29T19:03:19.721Z,5.06
2023-03-29T19:04:53.133Z,5.00
2023-03-29T19:06:26.521Z,4.98
2023-03-29T19:07:59.797Z,4.87
2023-03-29T19:09:33.136Z,4.78
2023-03-29T19:11:11.493Z,4.68
2023-03-29T19:12:44.742Z,4.56
2023-03-29T19:14:23.550Z,4.52
2023-03-29T19:15:56.834Z,4.38
2023-03-29T19:17:31.323Z,4.39
2023-03-29T19:19:05.853Z,4.37
2023-03-29T19:20:39.913Z,4.36
2023-03-29T19:22:13.022Z,4.35
2023-03-29T19:23:46.878Z,4.34
2023-03-29T19:25:20.414Z,4.21
2023-03-29T19:26:56.577Z,4.14
2023-03-29T19:28:30.128Z,3.98
2023-03-29T19:30:03.861Z,3.98
2023-03-29T19:31:37.972Z,3.84
2023-03-29T19:33:11.349Z,3.85
2023-03-29T19:34:44.574Z,3.74
2023-03-29T19:36:18.074Z,3.70
2023-03-29T19:37:51.240Z,3.63
2023-03-29T19:39:26.807Z,3.55
2023-03-29T19:41:00.090Z,3.52
2023-03-29T19:42:36.289Z,3.45
2023-03-29T19:44:09.663Z,3.38
2023-03-29T19:45:43.075Z,3.36
2023-03-29T19:47:16.515Z,3.33
2023-03-29T19:48:51.857Z,3.32
2023-03-29T19:50:26.364Z,3.29
2023-03-29T19:51:59.666Z,3.26
2023-03-29T19:53:33.692Z,3.25
2023-03-29T19:55:08.339Z,3.22
2023-03-29T19:56:42.690Z,3.19
2023-03-29T19:58:17.545Z,3.13
2023-03-29T19:59:50.916Z,3.15
2023-03-29T20:01:27.321Z,3.10
2023-03-29T20:03:01.162Z,3.03
2023-03-29T20:04:34.687Z,3.05
2023-03-29T20:06:08.388Z,2.96
2023-03-29T20:07:41.994Z,2.94
2023-03-29T20:09:16.378Z,2.90
2023-03-29T20:10:49.714Z,2.92
2023-03-29T20:12:22.858Z,2.92
2023-03-29T20:13:57.584Z,2.92
2023-03-29T20:15:30.699Z,2.93
2023-03-29T20:17:04.593Z,2.93
2023-03-29T20:18:38.724Z,3.01
2023-03-29T20:20:14.220Z,2.93
2023-03-29T20:21:50.713Z,2.98
2023-03-29T20:23:23.969Z,2.96
2023-03-29T20:24:57.426Z,2.91
2023-03-29T20:26:31.532Z,2.87
2023-03-29T20:28:04.806Z,2.84
2023-03-29T20:29:39.416Z,2.83
2023-03-29T20:31:12.742Z,2.82
2023-03-29T20:32:47.334Z,2.72
2023-03-29T20:34:20.516Z,2.79
2023-03-29T20:35:53.856Z,2.72
2023-03-29T20:37:27.264Z,2.70
2023-03-29T20:39:01.448Z,2.66
2023-03-29T20:40:37.291Z,2.61
2023-03-29T20:42:11.276Z,2.53
2023-03-29T20:43:46.228Z,2.48
2023-03-29T20:45:20.985Z,2.50
2023-03-29T20:47:03.910Z,2.50
2023-03-29T20:48:38.362Z,2.46
2023-03-29T20:50:12.293Z,2.46
2023-03-29T20:51:46.066Z,2.45
2023-03-29T20:53:20.537Z,2.43
2023-03-29T20:54:54.559Z,2.45
2023-03-29T20:56:27.882Z,2.47
2023-03-29T20:58:02.290Z,2.44
2023-03-29T20:59:35.641Z,2.47
2023-03-29T21:01:12.418Z,2.47
2023-03-29T21:02:46.357Z,2.40
2023-03-29T21:04:20.420Z,2.44
2023-03-29T21:05:55.304Z,2.42
2023-03-29T21:07:28.703Z,2.38
2023-03-29T21:09:01.872Z,2.35
2023-03-29T21:10:36.888Z,2.34
2023-03-29T21:12:10.976Z,2.33
2023-03-29T21:13:45.106Z,2.34
2023-03-29T21:15:19.864Z,2.31
2023-03-29T21:16:54.769Z,2.26
2023-03-29T21:18:28.467Z,2.23
2023-03-29T21:20:07.991Z,2.21
2023-03-29T21:21:42.960Z,2.17
2023-03-29T21:23:16.577Z,2.18
2023-03-29T21:24:50.165Z,2.14
2023-03-29T21:26:23.683Z,2.05
2023-03-29T21:27:57.025Z,2.00
2023-03-29T21:29:30.471Z,1.91
2023-03-29T21:31:05.922Z,1.84
2023-03-29T21:32:41.142Z,1.78
2023-03-29T21:34:15.161Z,1.72
2023-03-29T21:35:48.409Z,1.68
2023-03-29T21:37:21.674Z,1.58
2023-03-29T21:38:53.858Z,1.55
2023-03-29T21:40:26.996Z,1.49
2023-03-29T21:42:00.652Z,1.48
2023-03-29T21:43:33.828Z,1.44
2023-03-29T21:45:08.090Z,1.45
2023-03-29T21:46:41.309Z,1.47
2023-03-29T21:48:16.320Z,1.48
2023-03-29T21:49:49.824Z,1.47
2023-03-29T21:51:22.957Z,1.44
2023-03-29T21:52:56.073Z,1.40
2023-03-29T21:54:29.594Z,1.40
2023-03-29T21:56:03.051Z,1.33
2023-03-29T21:57:36.651Z,1.26
2023-03-29T21:59:09.888Z,1.34
2023-03-29T22:00:43.235Z,1.29
2023-03-29T22:02:17.106Z,1.31
2023-03-29T22:03:51.877Z,1.30
2023-03-29T22:05:26.133Z,1.33
2023-03-29T22:06:59.497Z,1.31
2023-03-29T22:08:33.083Z,1.31
2023-03-29T22:10:07.078Z,1.20
2023-03-29T22:11:40.206Z,1.15
2023-03-29T22:13:13.548Z,1.12
2023-03-29T22:14:46.965Z,1.05
2023-03-29T22:16:20.243Z,1.02
2023-03-29T22:17:53.611Z,0.96
2023-03-29T22:19:28.629Z,0.97
2023-03-29T22:21:02.109Z,0.97
2023-03-29T22:22:35.430Z,0.89
2023-03-29T22:24:08.678Z,0.85
2023-03-29T22:25:42.178Z,0.77
2023-03-29T22:27:15.550Z,0.67
2023-03-29T22:28:49.019Z,0.65
2023-03-29T22:30:22.862Z,0.65
2023-03-29T22:31:56.695Z,0.63
2023-03-29T22:33:31.482Z,0.68
2023-03-29T22:35:07.029Z,0.66
2023-03-29T22:36:40.311Z,0.64
2023-03-29T22:38:12.945Z,0.70
2023-03-29T22:39:46.480Z,0.72
2023-03-29T22:41:21.666Z,0.64
2023-03-29T22:42:54.796Z,0.56
2023-03-29T22:44:28.368Z,0.56
2023-03-29T22:46:01.748Z,0.56
2023-03-29T22:47:35.508Z,0.56
2023-03-29T22:49:08.675Z,0.56
2023-03-29T22:50:43.623Z,0.54
2023-03-29T22:52:16.991Z,0.44
2023-03-29T22:53:50.752Z,0.50
2023-03-29T22:55:23.897Z,0.49
2023-03-29T22:56:59.999Z,0.50
2023-03-29T22:58:33.328Z,0.38
2023-03-29T23:00:09.267Z,0.42
2023-03-29T23:01:42.842Z,0.39
2023-03-29T23:03:15.728Z,0.32
2023-03-29T23:04:49.308Z,0.39
2023-03-29T23:06:23.995Z,0.32
2023-03-29T23:07:56.218Z,0.27
2023-03-29T23:09:29.996Z,0.29
2023-03-29T23:11:03.784Z,0.28
2023-03-29T23:12:38.452Z,0.32
2023-03-29T23:14:11.636Z,0.28
2023-03-29T23:15:48.404Z,0.14